Ashton, Idaho
Current Conditions -  °F | °C
As of 9:03 AM on Sunday 21 Dec 2014 (Local Time) from KRXE Reporting Station
Overcast Overcast  
Wind Chill: 30°   Ceiling: 1500
Heat Index: 38°   Visibility: 10mi
Dew Point: 36°   Wind: 14mph
Humidity: 93%   Direction: 230°SW
Pressure: 29.71"   Gusts: NA
Location:  44.07°N, 111.45°W
Report Text: KRXE 211603Z AUTO 23012KT 10SM OVC015 03/02 A2971 RMK AO2 T00330022
Loading
Personal Weather Stations






























Interactive Weather Map New forecast layout! Learn more

10-Day Weather Forecast

Advertisements
Track Severe Weather on mobile